createdAt,value
2023-04-19T00:00:19.991Z,65.92
2023-04-19T00:02:49.763Z,66.15
2023-04-19T00:05:20.301Z,66.58
2023-04-19T00:07:52.392Z,66.11
2023-04-19T00:10:22.024Z,65.70
2023-04-19T00:12:51.418Z,65.68
2023-04-19T00:15:20.887Z,65.91
2023-04-19T00:17:50.329Z,65.78
2023-04-19T00:20:20.368Z,66.72
2023-04-19T00:22:52.256Z,66.98
2023-04-19T00:25:21.635Z,66.34
2023-04-19T00:27:50.961Z,66.11
2023-04-19T00:30:20.308Z,66.21
2023-04-19T00:32:49.715Z,66.69
2023-04-19T00:35:19.157Z,66.94
2023-04-19T00:37:48.555Z,67.38
2023-04-19T00:40:20.513Z,69.17
2023-04-19T00:42:49.868Z,69.00
2023-04-19T00:45:19.240Z,68.36
2023-04-19T00:47:48.595Z,69.33
2023-04-19T00:50:18.444Z,68.87
2023-04-19T00:52:49.109Z,68.80
2023-04-19T00:55:21.514Z,68.61
2023-04-19T00:57:52.256Z,69.31
2023-04-19T01:00:22.305Z,69.45
2023-04-19T01:02:51.731Z,70.12
2023-04-19T01:05:21.404Z,70.67
2023-04-19T01:07:51.495Z,71.74
2023-04-19T01:10:23.429Z,72.12
2023-04-19T01:12:52.799Z,71.92
2023-04-19T01:15:22.546Z,70.99
2023-04-19T01:17:52.171Z,71.29
2023-04-19T01:20:21.547Z,71.00
2023-04-19T01:22:53.469Z,70.87
2023-04-19T01:25:22.984Z,70.54
2023-04-19T01:27:52.491Z,71.48
2023-04-19T01:30:21.854Z,72.35
2023-04-19T01:32:51.180Z,73.23
2023-04-19T01:35:21.543Z,72.84
2023-04-19T01:37:55.652Z,71.62
2023-04-19T01:40:26.878Z,72.37
2023-04-19T01:42:56.317Z,71.44
2023-04-19T01:45:25.802Z,71.28
2023-04-19T01:47:56.130Z,71.82
2023-04-19T01:50:25.543Z,71.08
2023-04-19T01:52:57.492Z,70.88
2023-04-19T01:55:27.015Z,70.65
2023-04-19T01:57:56.440Z,70.20
2023-04-19T02:00:25.817Z,70.75
2023-04-19T02:02:55.462Z,69.53
2023-04-19T02:05:24.991Z,69.98
2023-04-19T02:07:56.957Z,70.29
2023-04-19T02:10:26.416Z,70.73
2023-04-19T02:12:55.908Z,69.88
2023-04-19T02:15:25.377Z,69.57
2023-04-19T02:17:57.656Z,69.51
2023-04-19T02:20:27.065Z,69.26
2023-04-19T02:22:58.973Z,69.46
2023-04-19T02:25:28.380Z,69.77
2023-04-19T02:27:57.692Z,69.76
2023-04-19T02:30:27.014Z,69.66
2023-04-19T02:32:58.883Z,69.32
2023-04-19T02:35:28.598Z,69.07
2023-04-19T02:38:00.553Z,68.43
2023-04-19T02:40:29.864Z,68.49
2023-04-19T02:42:59.292Z,69.30
2023-04-19T02:45:28.786Z,69.17
2023-04-19T02:47:59.607Z,69.02
2023-04-19T02:50:30.207Z,69.02
2023-04-19T02:53:03.797Z,68.70
2023-04-19T02:55:33.412Z,68.65
2023-04-19T02:58:03.272Z,69.28
2023-04-19T03:00:32.899Z,68.65
2023-04-19T03:03:04.168Z,68.90
2023-04-19T03:05:33.748Z,68.79
2023-04-19T03:08:05.784Z,68.75
2023-04-19T03:10:35.125Z,70.34
2023-04-19T03:13:04.488Z,70.02
2023-04-19T03:15:33.982Z,69.69
2023-04-19T03:18:03.395Z,70.16
2023-04-19T03:20:32.839Z,70.43
2023-04-19T03:23:05.086Z,70.67
2023-04-19T03:25:34.937Z,70.02
2023-04-19T03:28:04.258Z,70.23
2023-04-19T03:30:33.586Z,70.06
2023-04-19T03:33:03.022Z,69.86
2023-04-19T03:35:32.653Z,69.45
2023-04-19T03:38:01.987Z,70.19
2023-04-19T03:40:35.577Z,71.24
2023-04-19T03:43:04.938Z,70.27
2023-04-19T03:45:34.344Z,70.31
2023-04-19T03:48:03.800Z,69.89
2023-04-19T03:50:33.133Z,70.36
2023-04-19T03:53:02.470Z,69.77
2023-04-19T03:55:34.455Z,70.08
2023-04-19T03:58:03.862Z,70.17
2023-04-19T04:00:33.245Z,70.01
2023-04-19T04:03:02.791Z,70.33
2023-04-19T04:05:32.711Z,70.44
2023-04-19T04:08:02.130Z,70.98
2023-04-19T04:10:34.113Z,71.02
2023-04-19T04:13:03.607Z,71.75
2023-04-19T04:15:32.913Z,71.91
2023-04-19T04:18:02.437Z,72.29
2023-04-19T04:20:31.892Z,73.25
2023-04-19T04:23:01.523Z,73.43
2023-04-19T04:25:33.186Z,73.58
2023-04-19T04:28:05.147Z,75.46
2023-04-19T04:30:35.156Z,76.02
2023-04-19T04:33:05.145Z,75.30
2023-04-19T04:35:35.444Z,76.54
2023-04-19T04:38:17.501Z,76.94
2023-04-19T04:40:53.705Z,75.92
2023-04-19T04:43:29.319Z,76.40
2023-04-19T04:45:59.892Z,75.87
2023-04-19T04:48:29.443Z,75.87
2023-04-19T04:50:58.789Z,76.96
2023-04-19T04:53:28.871Z,76.28
2023-04-19T04:55:58.209Z,77.35
2023-04-19T04:58:30.128Z,78.36
2023-04-19T05:00:59.556Z,78.49
2023-04-19T05:03:29.743Z,80.46
2023-04-19T05:05:59.466Z,80.01
2023-04-19T05:08:29.821Z,80.02
2023-04-19T05:10:59.306Z,78.94
2023-04-19T05:13:31.212Z,79.44
2023-04-19T05:16:00.666Z,80.94
2023-04-19T05:18:30.036Z,81.71
2023-04-19T05:20:59.846Z,80.42
2023-04-19T05:23:29.514Z,80.17
2023-04-19T05:25:58.885Z,80.86
2023-04-19T05:28:30.871Z,80.88
2023-04-19T05:31:00.452Z,81.49
2023-04-19T05:33:29.972Z,80.56
2023-04-19T05:35:59.559Z,80.74
2023-04-19T05:38:28.958Z,81.69
2023-04-19T05:40:58.388Z,82.15
2023-04-19T05:43:27.801Z,80.90
2023-04-19T05:45:59.814Z,82.19
2023-04-19T05:48:29.238Z,82.62
2023-04-19T05:50:59.876Z,81.98
2023-04-19T05:53:29.228Z,83.68
2023-04-19T05:55:58.588Z,83.22
2023-04-19T05:58:28.879Z,82.51
2023-04-19T06:01:00.915Z,82.13
2023-04-19T06:03:32.243Z,83.11
2023-04-19T06:06:02.280Z,83.88
2023-04-19T06:08:31.817Z,84.21
2023-04-19T06:11:11.540Z,83.68
2023-04-19T06:13:51.086Z,83.18
2023-04-19T06:16:23.163Z,81.85
2023-04-19T06:18:52.677Z,81.99
2023-04-19T06:21:22.000Z,82.06
2023-04-19T06:23:51.300Z,81.63
2023-04-19T06:26:22.360Z,81.45
2023-04-19T06:28:55.055Z,80.98
2023-04-19T06:31:27.239Z,80.75
2023-04-19T06:33:56.620Z,80.60
2023-04-19T06:36:25.953Z,79.39
2023-04-19T06:38:55.629Z,79.28
2023-04-19T06:41:24.957Z,79.21
2023-04-19T06:43:54.302Z,79.38
2023-04-19T06:46:23.814Z,78.89
2023-04-19T06:48:55.848Z,78.86
2023-04-19T06:51:25.218Z,78.38
2023-04-19T06:53:54.540Z,78.14
2023-04-19T06:56:42.270Z,77.98
2023-04-19T06:59:11.591Z,77.93
2023-04-19T07:01:41.243Z,76.93
2023-04-19T07:04:13.510Z,77.22
2023-04-19T07:06:43.216Z,77.01
2023-04-19T07:09:12.547Z,77.46
2023-04-19T07:11:41.885Z,76.27
2023-04-19T07:14:11.760Z,77.36
2023-04-19T07:16:41.075Z,76.05
2023-04-19T07:19:13.099Z,75.00
2023-04-19T07:21:42.605Z,75.28
2023-04-19T07:24:11.955Z,74.97
2023-04-19T07:26:41.609Z,73.90
2023-04-19T07:29:12.022Z,72.71
2023-04-19T07:31:42.118Z,71.59
2023-04-19T07:34:14.301Z,71.92
2023-04-19T07:36:43.882Z,71.41
2023-04-19T07:39:13.370Z,70.50
2023-04-19T07:41:42.727Z,68.77
2023-04-19T07:44:13.384Z,68.84
2023-04-19T07:46:45.774Z,67.95
2023-04-19T07:49:18.223Z,68.04
2023-04-19T07:51:47.607Z,67.37
2023-04-19T07:54:18.205Z,67.04
2023-04-19T07:56:48.025Z,64.50
2023-04-19T07:59:17.408Z,64.44
2023-04-19T08:01:46.900Z,63.18
2023-04-19T08:04:21.097Z,62.46
2023-04-19T08:06:50.844Z,62.18
2023-04-19T08:09:20.228Z,61.23
2023-04-19T08:11:49.650Z,62.79
2023-04-19T08:14:32.360Z,61.20
2023-04-19T08:19:39.732Z,58.63
2023-04-19T08:22:09.070Z,58.68
2023-04-19T08:24:38.409Z,60.20
2023-04-19T08:27:07.716Z,59.03
2023-04-19T08:29:37.357Z,58.18
2023-04-19T08:32:07.177Z,58.19
2023-04-19T08:34:41.208Z,56.83
2023-04-19T08:37:10.573Z,56.60
2023-04-19T08:39:40.207Z,57.53
2023-04-19T08:42:24.536Z,56.13
2023-04-19T08:48:00.944Z,54.89
2023-04-19T08:50:42.670Z,55.50
2023-04-19T08:53:25.523Z,54.35
2023-04-19T08:56:12.777Z,54.79
2023-04-19T09:01:33.689Z,53.00
2023-04-19T09:04:17.156Z,53.25
2023-04-19T09:06:53.339Z,53.03
2023-04-19T09:09:35.484Z,53.10
2023-04-19T09:12:19.310Z,53.19
2023-04-19T09:15:01.156Z,52.50
2023-04-19T09:17:31.623Z,51.09
2023-04-19T09:20:03.725Z,51.83
2023-04-19T09:22:36.697Z,50.74
2023-04-19T09:27:39.221Z,53.27
2023-04-19T09:30:17.674Z,52.42
2023-04-19T09:32:53.685Z,50.25
2023-04-19T09:35:23.059Z,50.09
2023-04-19T09:38:06.846Z,49.54
2023-04-19T09:40:36.789Z,49.25
2023-04-19T09:43:32.952Z,48.00
2023-04-19T09:45:56.188Z,47.63
2023-04-19T09:48:26.568Z,47.96
2023-04-19T09:51:02.331Z,47.09
2023-04-19T09:53:37.127Z,48.40
2023-04-19T09:56:06.649Z,48.36
2023-04-19T09:58:46.810Z,47.66
2023-04-19T10:01:20.181Z,47.65
2023-04-19T10:03:52.836Z,48.08
2023-04-19T10:08:58.903Z,47.71
2023-04-19T10:11:32.000Z,48.69
2023-04-19T10:14:04.092Z,48.29
2023-04-19T10:16:33.686Z,48.58
2023-04-19T10:19:05.026Z,48.04
2023-04-19T10:21:34.645Z,48.44
2023-04-19T10:24:07.253Z,46.61
2023-04-19T10:27:06.997Z,46.41
2023-04-19T10:29:57.390Z,46.53
2023-04-19T10:32:27.479Z,47.62
2023-04-19T10:34:57.145Z,46.57
2023-04-19T10:37:28.670Z,46.34
2023-04-19T10:40:03.326Z,45.75
2023-04-19T10:43:11.526Z,44.88
2023-04-19T10:45:41.580Z,45.24
2023-04-19T10:48:38.358Z,45.48
2023-04-19T10:51:14.646Z,44.99
2023-04-19T10:54:00.596Z,45.01
2023-04-19T10:57:04.799Z,44.53
2023-04-19T10:59:35.033Z,45.41
2023-04-19T11:02:05.700Z,45.91
2023-04-19T11:05:04.521Z,44.77
2023-04-19T11:07:44.905Z,44.76
2023-04-19T11:10:14.440Z,44.15
2023-04-19T11:12:49.229Z,43.80
2023-04-19T11:15:18.730Z,44.62
2023-04-19T11:18:00.965Z,44.62
2023-04-19T11:20:38.657Z,44.67
2023-04-19T11:23:18.777Z,45.18
2023-04-19T11:25:49.381Z,44.59
2023-04-19T11:28:21.751Z,45.29
2023-04-19T11:30:52.115Z,45.12
2023-04-19T11:33:25.797Z,46.22
2023-04-19T11:35:55.140Z,45.56
2023-04-19T11:38:24.494Z,45.66
2023-04-19T11:41:03.764Z,45.57
2023-04-19T11:43:39.401Z,46.06
2023-04-19T11:46:09.703Z,45.96
2023-04-19T11:48:39.479Z,45.75
2023-04-19T11:51:09.121Z,46.97
2023-04-19T11:53:38.442Z,46.34
2023-04-19T11:56:10.403Z,47.21
2023-04-19T11:58:45.517Z,47.22
2023-04-19T12:01:16.440Z,47.96
2023-04-19T12:03:49.480Z,47.18
2023-04-19T12:06:21.380Z,47.29
2023-04-19T12:08:52.269Z,47.15
2023-04-19T12:11:24.531Z,47.80
2023-04-19T12:14:14.886Z,47.05
2023-04-19T12:16:45.145Z,47.63
2023-04-19T12:19:16.555Z,47.24
2023-04-19T12:21:46.936Z,47.79
2023-04-19T12:24:18.825Z,47.43
2023-04-19T12:26:56.976Z,47.72
2023-04-19T12:29:29.688Z,47.79
2023-04-19T12:31:59.033Z,47.00
2023-04-19T12:34:28.372Z,48.02
2023-04-19T12:36:57.925Z,47.44
2023-04-19T12:39:28.757Z,47.98
2023-04-19T12:41:58.457Z,47.24
2023-04-19T12:44:30.576Z,47.11
2023-04-19T12:46:59.949Z,47.19
2023-04-19T12:49:29.406Z,47.92
2023-04-19T12:51:58.701Z,48.60
2023-04-19T12:54:28.052Z,47.97
2023-04-19T12:56:57.709Z,47.40
2023-04-19T12:59:29.687Z,47.58
2023-04-19T13:01:59.170Z,46.93
2023-04-19T13:04:28.644Z,47.43
2023-04-19T13:06:58.033Z,47.31
2023-04-19T13:09:27.404Z,47.65
2023-04-19T13:11:57.954Z,48.08
2023-04-19T13:14:30.566Z,48.99
2023-04-19T13:16:59.908Z,48.34
2023-04-19T13:19:29.641Z,48.53
2023-04-19T13:21:58.962Z,48.56
2023-04-19T13:24:28.272Z,48.68
2023-04-19T13:26:57.945Z,48.30
2023-04-19T13:29:30.092Z,48.77
2023-04-19T13:31:59.491Z,48.81
2023-04-19T13:34:28.952Z,49.31
2023-04-19T13:36:58.576Z,48.80
2023-04-19T13:39:28.134Z,49.11
2023-04-19T13:41:57.493Z,49.25
2023-04-19T13:44:26.816Z,49.12
2023-04-19T13:46:59.172Z,49.05
2023-04-19T13:49:28.729Z,48.76
2023-04-19T13:51:58.067Z,48.79
2023-04-19T13:54:27.450Z,50.37
2023-04-19T13:56:56.773Z,50.09
2023-04-19T13:59:26.314Z,49.23
2023-04-19T14:01:58.726Z,49.31
2023-04-19T14:04:31.093Z,49.10
2023-04-19T14:07:00.438Z,49.28
2023-04-19T14:09:29.822Z,49.13
2023-04-19T14:11:59.172Z,48.85
2023-04-19T14:14:30.229Z,48.93
2023-04-19T14:17:03.555Z,49.11
2023-04-19T14:19:32.928Z,47.98
2023-04-19T14:22:02.853Z,48.39
2023-04-19T14:24:32.148Z,48.37
2023-04-19T14:29:34.031Z,48.74
2023-04-19T14:32:21.557Z,48.42
2023-04-19T14:34:54.350Z,48.09
2023-04-19T14:37:25.259Z,47.87
2023-04-19T14:39:55.463Z,48.24
2023-04-19T14:42:24.876Z,48.28
2023-04-19T14:44:54.345Z,48.83
2023-04-19T14:47:26.262Z,48.51
2023-04-19T14:49:55.875Z,47.68
2023-04-19T14:52:25.946Z,48.34
2023-04-19T14:54:55.278Z,48.11
2023-04-19T14:57:25.894Z,47.53
2023-04-19T14:59:58.141Z,46.80
2023-04-19T15:02:30.594Z,46.86
2023-04-19T15:05:00.237Z,46.59
2023-04-19T15:07:29.785Z,46.98
2023-04-19T15:09:59.553Z,47.79
2023-04-19T15:12:29.500Z,47.73
2023-04-19T15:14:58.816Z,48.69
2023-04-19T15:17:30.783Z,48.39
2023-04-19T15:20:00.216Z,48.42
2023-04-19T15:22:29.640Z,48.65
2023-04-19T15:24:58.945Z,48.18
2023-04-19T15:27:28.243Z,48.46
2023-04-19T15:29:58.285Z,47.78
2023-04-19T15:32:34.305Z,47.01
2023-04-19T15:35:03.903Z,47.98
2023-04-19T15:37:33.271Z,47.54
2023-04-19T15:40:02.784Z,48.30
2023-04-19T15:42:32.129Z,47.80
2023-04-19T15:45:01.496Z,47.92
2023-04-19T15:47:33.394Z,47.27
2023-04-19T15:50:05.141Z,47.75
2023-04-19T15:52:34.428Z,47.59
2023-04-19T15:55:04.784Z,47.22
2023-04-19T15:57:34.435Z,46.97
2023-04-19T16:00:03.904Z,47.23
2023-04-19T16:02:36.523Z,47.56
2023-04-19T16:05:06.874Z,47.21
2023-04-19T16:07:36.210Z,47.25
2023-04-19T16:10:05.887Z,47.05
2023-04-19T16:12:35.221Z,47.74
2023-04-19T16:15:04.874Z,47.56
2023-04-19T16:17:36.839Z,47.28
2023-04-19T16:20:09.200Z,47.81
2023-04-19T16:22:38.570Z,47.16
2023-04-19T16:25:11.092Z,46.60
2023-04-19T16:27:43.666Z,46.24
2023-04-19T16:30:16.619Z,44.79
2023-04-19T16:32:48.665Z,43.96
2023-04-19T16:35:18.519Z,43.87
2023-04-19T16:37:47.880Z,42.81
2023-04-19T16:40:17.269Z,42.08
2023-04-19T16:42:46.574Z,42.60
2023-04-19T16:45:18.143Z,42.53
2023-04-19T16:47:50.092Z,42.49
2023-04-19T16:50:20.566Z,41.96
2023-04-19T16:52:49.943Z,42.07
2023-04-19T16:55:19.577Z,42.97
2023-04-19T16:57:49.543Z,42.74
2023-04-19T17:00:19.541Z,42.68
2023-04-19T17:02:52.115Z,42.90
2023-04-19T17:05:22.181Z,43.07
2023-04-19T17:07:51.668Z,42.52
2023-04-19T17:10:21.535Z,43.21
2023-04-19T17:12:50.887Z,42.67
2023-04-19T17:15:20.220Z,42.72
2023-04-19T17:17:52.762Z,42.66
2023-04-19T17:20:22.408Z,43.17
2023-04-19T17:22:51.704Z,43.79
2023-04-19T17:25:22.350Z,43.47
2023-04-19T17:27:52.037Z,43.67
2023-04-19T17:30:21.493Z,43.82
2023-04-19T17:32:53.434Z,43.99
2023-04-19T17:35:22.777Z,43.72
2023-04-19T17:37:52.585Z,43.86
2023-04-19T17:40:21.944Z,44.50
2023-04-19T17:42:51.248Z,44.50
2023-04-19T17:45:20.606Z,44.64
2023-04-19T17:47:49.958Z,45.58
2023-04-19T17:50:21.879Z,45.49
2023-04-19T17:52:51.239Z,45.80
2023-04-19T17:55:20.545Z,46.14
2023-04-19T17:57:49.904Z,47.04
2023-04-19T18:00:19.756Z,47.40
2023-04-19T18:02:49.272Z,47.42
2023-04-19T18:05:18.680Z,47.68
2023-04-19T18:07:50.753Z,47.83
2023-04-19T18:10:20.242Z,48.14
2023-04-19T18:12:49.635Z,47.89
2023-04-19T18:15:19.213Z,48.42
2023-04-19T18:17:49.230Z,48.25
2023-04-19T18:20:18.907Z,48.19
2023-04-19T18:22:53.819Z,48.62
2023-04-19T18:25:23.139Z,48.65
2023-04-19T18:27:52.939Z,48.74
2023-04-19T18:30:22.307Z,48.56
2023-04-19T18:32:51.714Z,48.92
2023-04-19T18:35:22.008Z,48.97
2023-04-19T18:37:53.887Z,49.56
2023-04-19T18:40:23.292Z,49.41
2023-04-19T18:42:52.683Z,50.00
2023-04-19T18:45:22.126Z,50.04
2023-04-19T18:47:51.491Z,49.62
2023-04-19T18:50:21.117Z,49.95
2023-04-19T18:52:50.485Z,50.23
2023-04-19T18:55:22.373Z,50.01
2023-04-19T18:57:51.909Z,50.18
2023-04-19T19:00:21.892Z,50.27
2023-04-19T19:02:52.575Z,50.55
2023-04-19T19:05:22.829Z,50.36
2023-04-19T19:07:52.794Z,50.46
2023-04-19T19:10:48.506Z,50.12
2023-04-19T19:13:14.655Z,50.33
2023-04-19T19:15:44.506Z,50.13
2023-04-19T19:18:15.124Z,50.46
2023-04-19T19:20:44.519Z,50.34
2023-04-19T19:23:13.815Z,50.26
2023-04-19T19:25:45.769Z,50.29
2023-04-19T19:28:15.620Z,50.64
2023-04-19T19:30:45.857Z,50.58
2023-04-19T19:33:16.715Z,51.24
2023-04-19T19:35:46.106Z,51.32
2023-04-19T19:38:15.540Z,51.32
2023-04-19T19:41:24.695Z,51.59
2023-04-19T19:43:36.970Z,51.78
2023-04-19T19:46:06.740Z,52.25
2023-04-19T19:48:40.817Z,52.85
2023-04-19T19:53:44.069Z,53.31
2023-04-19T19:56:21.733Z,53.55
2023-04-19T19:58:52.547Z,53.73
2023-04-19T20:01:22.946Z,53.54
2023-04-19T20:03:52.838Z,53.72
2023-04-19T20:08:56.326Z,53.57
2023-04-19T20:11:28.621Z,54.09
2023-04-19T20:13:57.910Z,53.87
2023-04-19T20:16:30.009Z,54.60
2023-04-19T20:19:01.646Z,55.53
2023-04-19T20:21:31.723Z,56.28
2023-04-19T20:24:01.026Z,57.56
2023-04-19T20:26:32.953Z,58.96
2023-04-19T20:29:03.101Z,59.46
2023-04-19T20:31:32.492Z,60.01
2023-04-19T20:34:01.832Z,61.27
2023-04-19T20:36:32.284Z,62.15
2023-04-19T20:39:06.574Z,62.85
2023-04-19T20:41:38.638Z,64.03
2023-04-19T20:44:08.269Z,64.52
2023-04-19T20:46:38.737Z,65.12
2023-04-19T20:49:08.119Z,65.77
2023-04-19T20:51:37.445Z,65.52
2023-04-19T20:54:06.835Z,65.75
2023-04-19T20:56:38.758Z,65.64
2023-04-19T20:59:08.191Z,66.34
2023-04-19T21:01:37.818Z,66.16
2023-04-19T21:04:11.258Z,65.39
2023-04-19T21:06:40.690Z,66.37
2023-04-19T21:09:10.805Z,66.11
2023-04-19T21:11:43.968Z,66.37
2023-04-19T21:14:13.456Z,65.79
2023-04-19T21:16:43.034Z,65.49
2023-04-19T21:19:12.422Z,66.50
2023-04-19T21:21:41.961Z,65.69
2023-04-19T21:24:11.489Z,65.50
2023-04-19T21:26:43.494Z,65.87
2023-04-19T21:29:13.060Z,65.20
2023-04-19T21:31:42.627Z,65.28
2023-04-19T21:34:12.151Z,64.83
2023-04-19T21:36:41.596Z,65.66
2023-04-19T21:39:11.094Z,65.88
2023-04-19T21:41:43.110Z,65.59
2023-04-19T21:44:12.536Z,65.11
2023-04-19T21:46:42.018Z,65.31
2023-04-19T21:49:11.498Z,65.06
2023-04-19T21:51:41.238Z,65.28
2023-04-19T21:54:11.560Z,64.61
2023-04-19T21:56:44.867Z,64.09
2023-04-19T21:59:15.080Z,64.75
2023-04-19T22:01:44.776Z,64.46
2023-04-19T22:04:14.447Z,63.73
2023-04-19T22:06:44.327Z,64.21
2023-04-19T22:09:14.921Z,63.71
2023-04-19T22:11:46.923Z,63.53
2023-04-19T22:14:17.917Z,62.96
2023-04-19T22:16:47.559Z,62.64
2023-04-19T22:19:18.687Z,62.68
2023-04-19T22:21:48.960Z,62.34
2023-04-19T22:24:18.438Z,62.15
2023-04-19T22:26:51.227Z,62.29
2023-04-19T22:29:20.821Z,62.34
2023-04-19T22:31:50.317Z,64.03
2023-04-19T22:34:19.746Z,65.46
2023-04-19T22:36:49.221Z,68.30
2023-04-19T22:39:18.769Z,69.42
2023-04-19T22:41:50.900Z,70.09
2023-04-19T22:44:20.310Z,70.22
2023-04-19T22:46:50.512Z,70.64
2023-04-19T22:49:22.382Z,70.26
2023-04-19T22:51:51.779Z,71.17
2023-04-19T22:54:21.212Z,71.83
2023-04-19T22:56:53.199Z,72.10
2023-04-19T22:59:22.751Z,72.35
2023-04-19T23:01:52.508Z,71.95
2023-04-19T23:04:21.991Z,71.92
2023-04-19T23:06:52.711Z,72.84
2023-04-19T23:09:22.107Z,72.95
2023-04-19T23:11:54.937Z,73.68
2023-04-19T23:14:24.794Z,72.96
2023-04-19T23:16:55.178Z,71.95
2023-04-19T23:19:25.563Z,72.67
2023-04-19T23:21:54.902Z,73.25
2023-04-19T23:24:24.405Z,72.61
2023-04-19T23:26:56.789Z,74.61
2023-04-19T23:29:26.339Z,76.54
2023-04-19T23:31:55.861Z,77.59
2023-04-19T23:34:25.294Z,82.07
2023-04-19T23:36:54.780Z,83.77
2023-04-19T23:39:24.212Z,82.01
2023-04-19T23:41:56.278Z,82.29
2023-04-19T23:44:27.000Z,81.07
2023-04-19T23:46:56.555Z,79.27
2023-04-19T23:49:26.173Z,80.66
2023-04-19T23:51:55.572Z,80.29
2023-04-19T23:54:26.272Z,79.27
2023-04-19T23:56:59.727Z,78.13
2023-04-19T23:59:29.800Z,77.86
